createdAt,value
2022-10-11T00:00:00.947Z,100701.81
2022-10-11T00:02:28.111Z,100699.03
2022-10-11T00:04:57.462Z,100697.34
2022-10-11T00:07:24.305Z,100689.50
2022-10-11T00:09:51.146Z,100694.78
2022-10-11T00:12:18.259Z,100687.31
2022-10-11T00:14:45.082Z,100687.25
2022-10-11T00:17:11.930Z,100688.81
2022-10-11T00:19:39.038Z,100695.47
2022-10-11T00:22:05.941Z,100693.66
2022-10-11T00:24:32.810Z,100692.09
2022-10-11T00:26:59.921Z,100693.81
2022-10-11T00:29:26.819Z,100696.69
2022-10-11T00:31:53.682Z,100688.41
2022-10-11T00:34:20.773Z,100690.69
2022-10-11T00:36:48.638Z,100690.47
2022-10-11T00:39:15.539Z,100691.78
2022-10-11T00:41:42.646Z,100690.47
2022-10-11T00:44:11.754Z,100693.09
2022-10-11T00:46:40.767Z,100680.94
2022-10-11T00:49:44.234Z,100680.00
2022-10-11T00:52:19.786Z,100678.03
2022-10-11T00:54:47.810Z,100678.16
2022-10-11T00:57:19.397Z,100670.50
2022-10-11T00:59:50.966Z,100669.75
2022-10-11T01:02:18.480Z,100668.19
2022-10-11T01:04:45.443Z,100671.56
2022-10-11T01:07:12.973Z,100672.62
2022-10-11T01:09:39.929Z,100677.09
2022-10-11T01:12:13.946Z,100670.69
2022-10-11T01:15:02.969Z,100670.94
2022-10-11T01:17:41.137Z,100671.28
2022-10-11T01:20:20.719Z,100668.03
2022-10-11T01:22:56.458Z,100670.19
2022-10-11T01:25:29.594Z,100668.03
2022-10-11T01:28:08.390Z,100666.12
2022-10-11T01:30:36.977Z,100666.59
2022-10-11T01:33:15.794Z,100665.97
2022-10-11T01:35:49.191Z,100666.81
2022-10-11T01:38:38.251Z,100668.03
2022-10-11T01:41:13.284Z,100663.19
2022-10-11T01:43:41.429Z,100655.56
2022-10-11T01:46:09.609Z,100656.50
2022-10-11T01:48:56.920Z,100657.81
2022-10-11T01:51:34.006Z,100657.34
2022-10-11T01:54:19.179Z,100659.38
2022-10-11T01:57:15.641Z,100653.13
2022-10-11T02:00:18.512Z,100657.19
2022-10-11T02:03:07.331Z,100660.31
2022-10-11T02:06:00.010Z,100651.53
2022-10-11T02:09:09.308Z,100648.44
2022-10-11T02:11:36.535Z,100641.22
2022-10-11T02:14:09.593Z,100637.41
2022-10-11T02:16:45.177Z,100645.59
2022-10-11T02:19:13.610Z,100643.78
2022-10-11T02:21:43.131Z,100638.72
2022-10-11T02:24:15.027Z,100639.22
2022-10-11T02:26:43.919Z,100641.13
2022-10-11T02:29:12.476Z,100649.53
2022-10-11T02:31:39.757Z,100646.78
2022-10-11T02:34:16.922Z,100653.16
2022-10-11T02:36:52.751Z,100647.37
2022-10-11T02:39:31.355Z,100654.81
2022-10-11T02:42:00.251Z,100654.34
2022-10-11T02:44:43.035Z,100654.81
2022-10-11T02:47:10.084Z,100664.16
2022-10-11T02:49:37.184Z,100661.88
2022-10-11T02:52:05.900Z,100659.22
2022-10-11T02:54:32.817Z,100661.78
2022-10-11T02:56:59.931Z,100668.94
2022-10-11T02:59:26.771Z,100663.19
2022-10-11T03:01:53.713Z,100665.09
2022-10-11T03:04:20.904Z,100659.69
2022-10-11T03:06:47.761Z,100661.97
2022-10-11T03:09:14.630Z,100658.63
2022-10-11T03:11:41.729Z,100659.59
2022-10-11T03:14:08.603Z,100661.97
2022-10-11T03:16:35.452Z,100660.78
2022-10-11T03:19:02.573Z,100671.78
2022-10-11T03:21:29.442Z,100662.69
2022-10-11T03:23:56.270Z,100659.47
2022-10-11T03:26:23.456Z,100660.56
2022-10-11T03:28:50.353Z,100671.13
2022-10-11T03:31:21.840Z,100670.50
2022-10-11T03:33:48.957Z,100670.84
2022-10-11T03:36:16.138Z,100678.25
2022-10-11T03:38:43.059Z,100682.44
2022-10-11T03:41:10.168Z,100672.34
2022-10-11T03:43:37.160Z,100674.59
2022-10-11T03:46:04.394Z,100675.66
2022-10-11T03:48:31.665Z,100677.06
2022-10-11T03:50:58.497Z,100677.31
2022-10-11T03:53:25.362Z,100679.03
2022-10-11T03:55:54.340Z,100677.34
2022-10-11T03:58:22.003Z,100687.34
2022-10-11T04:00:49.190Z,100680.06
2022-10-11T04:03:16.320Z,100680.50
2022-10-11T04:05:43.165Z,100679.44
2022-10-11T04:08:12.387Z,100678.72
2022-10-11T04:10:40.080Z,100684.81
2022-10-11T04:13:07.445Z,100683.03
2022-10-11T04:15:34.329Z,100689.16
2022-10-11T04:18:01.738Z,100694.53
2022-10-11T04:20:28.586Z,100695.91
2022-10-11T04:22:55.427Z,100689.97
2022-10-11T04:25:22.511Z,100694.63
2022-10-11T04:27:49.351Z,100694.56
2022-10-11T04:30:16.607Z,100690.00
2022-10-11T04:32:43.755Z,100692.19
2022-10-11T04:35:11.212Z,100694.91
2022-10-11T04:37:38.066Z,100686.19
2022-10-11T04:40:06.821Z,100691.63
2022-10-11T04:42:34.453Z,100684.78
2022-10-11T04:45:01.371Z,100685.56
2022-10-11T04:47:28.502Z,100687.00
2022-10-11T04:49:55.351Z,100689.31
2022-10-11T04:52:25.576Z,100682.00
2022-10-11T04:54:53.137Z,100686.44
2022-10-11T04:57:20.002Z,100686.81
2022-10-11T04:59:50.145Z,100695.72
2022-10-11T05:02:17.513Z,100693.56
2022-10-11T05:04:44.739Z,100693.78
2022-10-11T05:07:11.608Z,100694.28
2022-10-11T05:09:38.705Z,100699.56
2022-10-11T05:12:05.941Z,100700.53
2022-10-11T05:14:32.800Z,100701.72
2022-10-11T05:16:59.930Z,100703.19
2022-10-11T05:19:26.813Z,100712.44
2022-10-11T05:21:55.066Z,100701.03
2022-10-11T05:24:22.200Z,100709.56
2022-10-11T05:26:49.507Z,100711.13
2022-10-11T05:29:16.350Z,100708.00
2022-10-11T05:31:43.457Z,100710.53
2022-10-11T05:34:10.303Z,100704.63
2022-10-11T05:36:37.234Z,100709.06
2022-10-11T05:39:04.506Z,100712.78
2022-10-11T05:41:31.497Z,100711.84
2022-10-11T05:43:58.377Z,100716.91
2022-10-11T05:46:25.484Z,100719.53
2022-10-11T05:48:55.141Z,100730.47
2022-10-11T05:51:21.978Z,100724.41
2022-10-11T05:53:49.285Z,100728.03
2022-10-11T05:56:23.365Z,100737.28
2022-10-11T05:58:52.598Z,100731.22
2022-10-11T06:01:27.042Z,100743.03
2022-10-11T06:03:57.310Z,100742.25
2022-10-11T06:06:27.200Z,100746.22
2022-10-11T06:08:57.177Z,100749.06
2022-10-11T06:11:34.876Z,100761.94
2022-10-11T06:14:05.863Z,100755.87
2022-10-11T06:16:32.741Z,100757.78
2022-10-11T06:18:59.609Z,100754.84
2022-10-11T06:21:26.757Z,100750.44
2022-10-11T06:23:59.862Z,100752.91
2022-10-11T06:26:29.095Z,100762.81
2022-10-11T06:28:56.449Z,100766.66
2022-10-11T06:31:26.474Z,100769.66
2022-10-11T06:33:56.516Z,100760.28
2022-10-11T06:36:26.175Z,100762.66
2022-10-11T06:38:56.446Z,100767.56
2022-10-11T06:41:26.214Z,100766.19
2022-10-11T06:43:56.872Z,100776.72
2022-10-11T06:46:27.242Z,100765.81
2022-10-11T06:48:57.522Z,100771.06
2022-10-11T06:51:28.644Z,100766.31
2022-10-11T06:54:00.073Z,100787.00
2022-10-11T06:56:31.255Z,100781.53
2022-10-11T06:58:59.392Z,100791.12
2022-10-11T07:01:26.719Z,100783.44
2022-10-11T07:03:58.220Z,100784.50
2022-10-11T07:06:28.952Z,100789.34
2022-10-11T07:09:00.350Z,100789.47
2022-10-11T07:11:28.233Z,100795.09
2022-10-11T07:14:00.166Z,100788.94
2022-10-11T07:16:28.071Z,100782.13
2022-10-11T07:19:00.562Z,100782.56
2022-10-11T07:21:28.924Z,100779.94
2022-10-11T07:23:55.858Z,100787.06
2022-10-11T07:26:25.849Z,100787.91
2022-10-11T07:28:55.833Z,100785.09
2022-10-11T07:31:24.908Z,100787.69
2022-10-11T07:33:54.117Z,100791.06
2022-10-11T07:36:24.201Z,100790.56
2022-10-11T07:38:53.563Z,100792.53
2022-10-11T07:41:20.732Z,100798.84
2022-10-11T07:43:51.072Z,100790.25
2022-10-11T07:46:20.435Z,100789.91
2022-10-11T07:48:47.639Z,100795.16
2022-10-11T07:51:20.288Z,100788.69
2022-10-11T07:53:49.518Z,100790.69
2022-10-11T07:56:19.440Z,100789.00
2022-10-11T07:58:53.750Z,100784.97
2022-10-11T08:01:22.552Z,100794.34
2022-10-11T08:03:50.274Z,100799.25
2022-10-11T08:06:20.469Z,100798.38
2022-10-11T08:08:47.376Z,100802.94
2022-10-11T08:11:25.825Z,100797.34
2022-10-11T08:13:55.851Z,100805.97
2022-10-11T08:16:25.980Z,100802.19
2022-10-11T08:18:56.991Z,100798.91
2022-10-11T08:21:27.179Z,100803.25
2022-10-11T08:24:14.064Z,100798.47
2022-10-11T08:27:00.953Z,100813.41
2022-10-11T08:29:47.603Z,100806.25
2022-10-11T08:32:34.561Z,100802.13
2022-10-11T08:35:21.249Z,100807.00
2022-10-11T08:38:08.182Z,100803.13
2022-10-11T08:40:56.917Z,100804.88
2022-10-11T08:43:57.952Z,100795.94
2022-10-11T08:47:00.450Z,100794.62
2022-10-11T08:49:47.642Z,100800.94
2022-10-11T08:53:06.567Z,100795.97
2022-10-11T08:55:45.061Z,100798.78
2022-10-11T08:58:15.820Z,100799.69
2022-10-11T09:00:44.795Z,100793.81
2022-10-11T09:03:34.229Z,100791.19
2022-10-11T09:06:20.403Z,100798.66
2022-10-11T09:09:32.866Z,100810.41
2022-10-11T09:12:05.763Z,100813.25
2022-10-11T09:14:38.604Z,100793.37
2022-10-11T09:17:14.762Z,100810.13
2022-10-11T09:19:57.405Z,100805.22
2022-10-11T09:22:37.915Z,100820.88
2022-10-11T09:25:24.703Z,100815.12
2022-10-11T09:28:03.601Z,100824.31
2022-10-11T09:30:32.114Z,100814.38
2022-10-11T09:33:12.523Z,100826.97
2022-10-11T09:35:46.622Z,100820.78
2022-10-11T09:38:18.241Z,100810.88
2022-10-11T09:41:25.832Z,100813.47
2022-10-11T09:43:55.961Z,100815.50
2022-10-11T09:46:36.867Z,100805.81
2022-10-11T09:49:08.197Z,100813.53
2022-10-11T09:51:35.102Z,100816.56
2022-10-11T09:54:05.283Z,100811.44
2022-10-11T09:56:34.375Z,100812.53
2022-10-11T09:59:08.852Z,100813.88
2022-10-11T10:01:36.414Z,100810.88
2022-10-11T10:04:12.423Z,100815.88
2022-10-11T10:06:40.089Z,100811.47
2022-10-11T10:09:26.229Z,100807.50
2022-10-11T10:11:55.016Z,100805.31
2022-10-11T10:14:25.659Z,100805.50
2022-10-11T10:17:00.897Z,100802.50
2022-10-11T10:19:28.536Z,100804.59
2022-10-11T10:21:56.124Z,100802.78
2022-10-11T10:24:38.380Z,100796.44
2022-10-11T10:27:14.288Z,100795.91
2022-10-11T10:29:41.696Z,100802.34
2022-10-11T10:32:15.492Z,100798.84
2022-10-11T10:35:10.557Z,100796.59
2022-10-11T10:37:48.646Z,100791.62
2022-10-11T10:40:23.354Z,100794.88
2022-10-11T10:42:51.098Z,100789.25
2022-10-11T10:45:21.502Z,100791.41
2022-10-11T10:49:11.764Z,100790.53
2022-10-11T10:51:38.325Z,100789.22
2022-10-11T10:54:12.008Z,100795.97
2022-10-11T10:57:00.119Z,100781.62
2022-10-11T10:59:52.343Z,100788.38
2022-10-11T11:02:39.564Z,100784.84
2022-10-11T11:05:22.803Z,100781.03
2022-10-11T11:08:08.365Z,100786.28
2022-10-11T11:10:53.157Z,100778.53
2022-10-11T11:13:23.205Z,100783.41
2022-10-11T11:16:12.184Z,100779.09
2022-10-11T11:18:54.404Z,100781.62
2022-10-11T11:21:59.206Z,100784.75
2022-10-11T11:24:47.179Z,100780.44
2022-10-11T11:27:35.302Z,100776.16
2022-10-11T11:30:09.699Z,100774.91
2022-10-11T11:33:02.364Z,100775.50
2022-10-11T11:35:37.117Z,100770.28
2022-10-11T11:38:23.048Z,100765.28
2022-10-11T11:40:55.796Z,100770.88
2022-10-11T11:43:36.601Z,100762.72
2022-10-11T11:46:16.275Z,100774.28
2022-10-11T11:48:43.610Z,100760.53
2022-10-11T11:51:21.658Z,100762.75
2022-10-11T11:54:17.650Z,100762.63
2022-10-11T11:57:04.471Z,100763.19
2022-10-11T11:59:33.978Z,100758.00
2022-10-11T12:02:21.253Z,100756.59
2022-10-11T12:04:49.356Z,100753.81
2022-10-11T12:07:18.915Z,100749.84
2022-10-11T12:09:50.636Z,100752.63
2022-10-11T12:12:34.026Z,100751.72
2022-10-11T12:15:10.211Z,100752.41
2022-10-11T12:17:59.147Z,100753.38
2022-10-11T12:20:33.315Z,100746.44
2022-10-11T12:23:10.242Z,100742.25
2022-10-11T12:25:41.879Z,100735.97
2022-10-11T12:28:37.004Z,100742.94
2022-10-11T12:31:06.776Z,100738.53
2022-10-11T12:33:33.960Z,100741.59
2022-10-11T12:36:40.126Z,100746.59
2022-10-11T12:39:22.777Z,100747.56
2022-10-11T12:41:55.557Z,100743.03
2022-10-11T12:44:26.297Z,100738.06
2022-10-11T12:46:57.654Z,100740.62
2022-10-11T12:49:33.990Z,100731.31
2022-10-11T12:52:20.243Z,100734.53
2022-10-11T12:55:06.040Z,100735.25
2022-10-11T12:57:51.514Z,100727.97
2022-10-11T13:00:29.963Z,100727.66
2022-10-11T13:03:00.432Z,100733.94
2022-10-11T13:05:36.800Z,100731.09
2022-10-11T13:08:05.619Z,100734.59
2022-10-11T13:10:42.489Z,100734.53
2022-10-11T13:13:25.692Z,100733.84
2022-10-11T13:15:54.353Z,100733.06
2022-10-11T13:18:24.354Z,100722.56
2022-10-11T13:20:51.240Z,100730.19
2022-10-11T13:23:37.517Z,100723.12
2022-10-11T13:26:25.869Z,100729.84
2022-10-11T13:29:17.942Z,100724.84
2022-10-11T13:31:48.280Z,100723.88
2022-10-11T13:34:17.659Z,100725.94
2022-10-11T13:36:48.019Z,100732.41
2022-10-11T13:39:34.634Z,100731.72
2022-10-11T13:42:07.617Z,100732.97
2022-10-11T13:44:36.795Z,100734.16
2022-10-11T13:47:03.985Z,100731.09
2022-10-11T13:49:40.039Z,100731.03
2022-10-11T13:52:21.056Z,100733.19
2022-10-11T13:55:18.051Z,100730.53
2022-10-11T13:57:46.917Z,100730.31
2022-10-11T14:00:19.843Z,100730.72
2022-10-11T14:02:52.579Z,100731.13
2022-10-11T14:05:34.775Z,100731.97
2022-10-11T14:08:30.155Z,100727.41
2022-10-11T14:11:01.297Z,100731.13
2022-10-11T14:13:36.715Z,100727.78
2022-10-11T14:16:09.698Z,100725.06
2022-10-11T14:18:36.877Z,100733.62
2022-10-11T14:21:18.971Z,100736.50
2022-10-11T14:24:18.257Z,100738.25
2022-10-11T14:26:50.207Z,100740.72
2022-10-11T14:29:34.886Z,100736.06
2022-10-11T14:32:05.141Z,100736.41
2022-10-11T14:34:32.444Z,100733.97
2022-10-11T14:36:59.371Z,100735.37
2022-10-11T14:39:28.379Z,100740.38
2022-10-11T14:41:55.531Z,100739.75
2022-10-11T14:44:22.709Z,100741.81
2022-10-11T14:46:54.031Z,100739.13
2022-10-11T14:49:26.537Z,100741.59
2022-10-11T14:51:55.395Z,100739.28
2022-10-11T14:54:23.725Z,100739.16
2022-10-11T14:56:54.919Z,100736.13
2022-10-11T14:59:24.529Z,100739.13
2022-10-11T15:01:53.797Z,100739.69
2022-10-11T15:04:22.364Z,100738.84
2022-10-11T15:06:49.880Z,100736.84
2022-10-11T15:09:17.335Z,100748.28
2022-10-11T15:11:44.183Z,100735.06
2022-10-11T15:14:11.029Z,100737.72
2022-10-11T15:16:39.974Z,100744.94
2022-10-11T15:19:09.997Z,100748.63
2022-10-11T15:21:36.869Z,100750.97
2022-10-11T15:24:04.006Z,100747.97
2022-10-11T15:26:30.935Z,100749.63
2022-10-11T15:29:00.660Z,100753.00
2022-10-11T15:31:27.816Z,100747.97
2022-10-11T15:33:59.708Z,100744.97
2022-10-11T15:36:29.632Z,100750.97
2022-10-11T15:39:00.079Z,100748.47
2022-10-11T15:41:29.832Z,100754.59
2022-10-11T15:44:00.362Z,100753.25
2022-10-11T15:46:27.206Z,100754.78
2022-10-11T15:48:56.815Z,100761.12
2022-10-11T15:51:28.428Z,100762.94
2022-10-11T15:53:58.105Z,100762.59
2022-10-11T15:56:32.906Z,100763.25
2022-10-11T15:59:00.703Z,100757.25
2022-10-11T16:01:27.883Z,100763.28
2022-10-11T16:03:55.088Z,100770.34
2022-10-11T16:06:22.061Z,100767.31
2022-10-11T16:08:51.606Z,100770.66
2022-10-11T16:11:18.726Z,100768.78
2022-10-11T16:13:45.557Z,100769.63
2022-10-11T16:16:12.871Z,100773.94
2022-10-11T16:18:40.133Z,100774.25
2022-10-11T16:21:10.146Z,100779.59
2022-10-11T16:23:37.802Z,100784.56
2022-10-11T16:26:08.192Z,100782.56
2022-10-11T16:28:35.894Z,100794.25
2022-10-11T16:31:07.950Z,100787.69
2022-10-11T16:33:35.390Z,100792.03
2022-10-11T16:36:28.895Z,100797.00
2022-10-11T16:38:59.667Z,100801.44
2022-10-11T16:41:29.603Z,100801.25
2022-10-11T16:43:59.887Z,100799.37
2022-10-11T16:46:29.646Z,100804.91
2022-10-11T16:49:00.113Z,100807.56
2022-10-11T16:51:26.993Z,100810.75
2022-10-11T16:53:56.744Z,100808.78
2022-10-11T16:56:27.307Z,100807.72
2022-10-11T16:58:57.106Z,100812.06
2022-10-11T17:01:27.959Z,100811.41
2022-10-11T17:03:58.171Z,100806.13
2022-10-11T17:06:28.545Z,100812.19
2022-10-11T17:08:55.446Z,100812.41
2022-10-11T17:11:24.383Z,100811.44
2022-10-11T17:13:53.343Z,100812.22
2022-10-11T17:16:22.199Z,100820.22
2022-10-11T17:18:49.353Z,100820.22
2022-10-11T17:21:17.795Z,100816.03
2022-10-11T17:23:45.050Z,100823.47
2022-10-11T17:26:20.718Z,100829.13
2022-10-11T17:28:47.987Z,100827.81
2022-10-11T17:31:15.131Z,100830.66
2022-10-11T17:33:42.438Z,100834.84
2022-10-11T17:36:34.457Z,100844.97
2022-10-11T17:39:03.094Z,100836.41
2022-10-11T17:41:32.216Z,100841.63
2022-10-11T17:43:59.866Z,100849.16
2022-10-11T17:46:28.114Z,100842.47
2022-10-11T17:48:59.795Z,100842.75
2022-10-11T17:51:27.401Z,100847.63
2022-10-11T17:53:57.647Z,100836.81
2022-10-11T17:56:33.711Z,100842.47
2022-10-11T17:59:03.657Z,100844.41
2022-10-11T18:01:30.825Z,100844.66
2022-10-11T18:04:00.069Z,100843.53
2022-10-11T18:06:30.300Z,100836.97
2022-10-11T18:09:00.262Z,100841.81
2022-10-11T18:11:27.117Z,100845.22
2022-10-11T18:13:57.124Z,100844.13
2022-10-11T18:16:28.951Z,100844.72
2022-10-11T18:18:59.015Z,100844.72
2022-10-11T18:21:34.247Z,100850.06
2022-10-11T18:24:03.721Z,100851.75
2022-10-11T18:26:31.203Z,100845.88
2022-10-11T18:28:58.758Z,100852.62
2022-10-11T18:31:30.380Z,100845.56
2022-10-11T18:33:57.735Z,100854.72
2022-10-11T18:36:28.891Z,100852.47
2022-10-11T18:38:58.643Z,100859.94
2022-10-11T18:41:31.896Z,100850.81
2022-10-11T18:44:04.384Z,100850.97
2022-10-11T18:46:31.831Z,100852.66
2022-10-11T18:49:01.228Z,100852.22
2022-10-11T18:51:33.500Z,100846.78
2022-10-11T18:54:01.166Z,100849.88
2022-10-11T18:56:29.511Z,100850.87
2022-10-11T18:58:57.276Z,100851.16
2022-10-11T19:01:31.931Z,100845.16
2022-10-11T19:04:00.552Z,100841.88
2022-10-11T19:06:30.362Z,100836.44
2022-10-11T19:09:05.695Z,100843.72
2022-10-11T19:11:33.261Z,100841.63
2022-10-11T19:14:02.517Z,100840.87
2022-10-11T19:16:29.955Z,100841.63
2022-10-11T19:18:57.426Z,100848.16
2022-10-11T19:21:27.402Z,100856.53
2022-10-11T19:23:57.427Z,100845.34
2022-10-11T19:26:29.117Z,100850.91
2022-10-11T19:29:04.487Z,100849.53
2022-10-11T19:31:32.600Z,100859.44
2022-10-11T19:34:00.675Z,100855.09
2022-10-11T19:36:31.383Z,100863.75
2022-10-11T19:39:01.296Z,100869.06
2022-10-11T19:41:28.439Z,100865.47
2022-10-11T19:43:57.950Z,100862.38
2022-10-11T19:46:49.893Z,100869.38
2022-10-11T19:49:17.599Z,100865.88
2022-10-11T19:51:44.863Z,100864.75
2022-10-11T19:54:13.707Z,100859.72
2022-10-11T19:56:41.184Z,100865.72
2022-10-11T19:59:08.575Z,100856.66
2022-10-11T20:01:36.287Z,100865.47
2022-10-11T20:04:08.345Z,100869.50
2022-10-11T20:06:38.631Z,100871.78
2022-10-11T20:11:54.110Z,100864.28
2022-10-11T20:14:21.307Z,100875.34
2022-10-11T20:16:50.135Z,100868.91
2022-10-11T20:19:17.286Z,100868.91
2022-10-11T20:21:45.120Z,100870.03
2022-10-11T20:24:12.178Z,100877.84
2022-10-11T20:26:39.382Z,100871.94
2022-10-11T20:29:07.182Z,100879.81
2022-10-11T20:31:35.014Z,100874.63
2022-10-11T20:34:04.242Z,100867.22
2022-10-11T20:36:32.468Z,100875.34
2022-10-11T20:39:00.001Z,100877.69
2022-10-11T20:41:33.004Z,100880.16
2022-10-11T20:44:01.364Z,100880.56
2022-10-11T20:46:31.282Z,100879.09
2022-10-11T20:49:03.426Z,100881.34
2022-10-11T20:51:31.745Z,100888.03
2022-10-11T20:53:59.168Z,100881.56
2022-10-11T20:56:29.775Z,100875.00
2022-10-11T20:58:58.219Z,100874.78
2022-10-11T21:01:34.397Z,100878.19
2022-10-11T21:04:01.963Z,100876.75
2022-10-11T21:06:29.981Z,100881.22
2022-10-11T21:09:00.447Z,100868.59
2022-10-11T21:11:33.314Z,100883.34
2022-10-11T21:14:02.319Z,100880.53
2022-10-11T21:16:30.080Z,100877.69
2022-10-11T21:18:58.665Z,100875.09
2022-10-11T21:21:29.356Z,100877.81
2022-10-11T21:24:01.059Z,100874.00
2022-10-11T21:26:30.994Z,100884.16
2022-10-11T21:29:03.900Z,100881.75
2022-10-11T21:31:34.095Z,100881.63
2022-10-11T21:34:02.287Z,100872.06
2022-10-11T21:36:29.157Z,100885.13
2022-10-11T21:38:56.349Z,100886.47
2022-10-11T21:41:29.957Z,100877.81
2022-10-11T21:43:59.940Z,100877.22
2022-10-11T21:49:18.596Z,100876.88
2022-10-11T21:51:45.698Z,100881.63
2022-10-11T21:54:12.549Z,100889.09
2022-10-11T21:56:39.412Z,100887.19
2022-10-11T21:59:09.510Z,100884.06
2022-10-11T22:01:39.557Z,100889.25
2022-10-11T22:04:09.568Z,100878.06
2022-10-11T22:06:37.354Z,100886.62
2022-10-11T22:09:05.006Z,100886.16
2022-10-11T22:11:32.126Z,100883.38
2022-10-11T22:13:59.061Z,100885.94
2022-10-11T22:16:25.940Z,100894.97
2022-10-11T22:18:56.199Z,100888.97
2022-10-11T22:21:27.077Z,100887.16
2022-10-11T22:23:57.676Z,100881.84
2022-10-11T22:26:32.137Z,100882.72
2022-10-11T22:29:02.111Z,100885.59
2022-10-11T22:31:29.387Z,100886.69
2022-10-11T22:34:00.035Z,100889.91
2022-10-11T22:36:28.213Z,100891.34
2022-10-11T22:38:58.664Z,100889.69
2022-10-11T22:41:28.521Z,100882.69
2022-10-11T22:43:58.726Z,100893.97
2022-10-11T22:46:28.612Z,100885.31
2022-10-11T22:48:55.729Z,100883.00
2022-10-11T22:51:22.638Z,100892.16
2022-10-11T22:53:49.489Z,100894.81
2022-10-11T22:56:16.691Z,100888.06
2022-10-11T22:58:43.551Z,100892.28
2022-10-11T23:01:12.097Z,100879.03
2022-10-11T23:03:39.334Z,100894.16
2022-10-11T23:06:06.527Z,100889.34
2022-10-11T23:08:33.404Z,100891.25
2022-10-11T23:11:07.215Z,100894.16
2022-10-11T23:13:34.586Z,100889.66
2022-10-11T23:16:09.408Z,100893.28
2022-10-11T23:18:36.425Z,100894.31
2022-10-11T23:21:04.349Z,100895.78
2022-10-11T23:23:31.196Z,100895.34
2022-10-11T23:26:05.130Z,100900.00
2022-10-11T23:28:32.342Z,100901.66
2022-10-11T23:30:59.338Z,100904.53
2022-10-11T23:33:27.886Z,100903.69
2022-10-11T23:35:55.075Z,100905.59
2022-10-11T23:38:21.949Z,100903.22
2022-10-11T23:40:48.809Z,100909.22
2022-10-11T23:43:15.917Z,100907.97
2022-10-11T23:45:43.830Z,100910.06
2022-10-11T23:48:10.771Z,100914.87
2022-10-11T23:50:37.865Z,100916.56
2022-10-11T23:53:04.865Z,100918.44
2022-10-11T23:55:31.730Z,100911.19
2022-10-11T23:57:58.840Z,100921.06
